メインページ
METAR-TAF:

METAR-TAF

空港 :

Arctic Bay, ヌナブト準州, カナダ

緯度: 73-00-23N, 経度: 085-02-50W, 海抜: 22m

現時点の気象観測

当レポートは14時間44分前の21:00(UTC)に作成
北/北西の風 10kt、西/南西から北/北西の間で変化する
気温 -27°C
湿度 75%
気圧 992 hPa
視程: 24.1km
高度5000ftの雲は散在している
小雪

METAR: CYAB 132100Z 33010KT 250V330 15SM -SN SCT050 M27/M30 A2930 RMK SC3 SS02AFT 12 UTC/29/LAST STFD OBS NEXT 141800Z SLP928

時間: 06:44 (11:44 UTC)

予報

当レポートは20時間4分前の15:40(UTC)に作成
予報は13日の 15時(UTC)から 13日の 21時(UTC)まで有効
変向風 3kt
視程: 10km
高度5000ftの雲はほとんどない

TAF: CYAB 131540Z 1315/1321 VRB03KT P6SM FEW050 RMK NXT FCST WILL BE ISSUED AT 141945Z

4,000以上の空港の気象観測と天気予報(METAR報とTAF報)

利用可能な観測所は地図上に黄色い丸と赤い丸で示す。

丸の上にカーソルを重ねると観測所名を参照できる。

次にクリックすると気象観測と天気予報を参照できる。

マップの切り替え:黒色「×」印の緑ボタンをクリックして拡大、「-」印の緑ボタンをクリックして縮小、緑色の三角印をクリックして隣りの地図に切り替え


METAR-TAF: